sensor_id;sensor_type;location;lat;lon;timestamp;P1;durP1;ratioP1;P2;durP2;ratioP2
34035;SDS011;63481;52.588;22.472;2023-06-10T00:00:30;12.70;;;4.40;;
34035;SDS011;63481;52.588;22.472;2023-06-10T00:01:43;10.50;;;4.40;;
34035;SDS011;63481;52.588;22.472;2023-06-10T00:02:39;15.00;;;4.90;;
34035;SDS011;63481;52.588;22.472;2023-06-10T00:03:32;11.10;;;5.10;;
34035;SDS011;63481;52.588;22.472;2023-06-10T00:04:25;15.80;;;4.80;;
34035;SDS011;63481;52.588;22.472;2023-06-10T00:05:21;14.90;;;4.70;;
34035;SDS011;63481;52.588;22.472;2023-06-10T00:06:13;12.90;;;4.60;;
34035;SDS011;63481;52.588;22.472;2023-06-10T00:07:06;9.20;;;4.60;;
34035;SDS011;63481;52.588;22.472;2023-06-10T00:08:01;11.90;;;5.60;;
34035;SDS011;63481;52.588;22.472;2023-06-10T00:08:59;10.80;;;5.00;;
34035;SDS011;63481;52.588;22.472;2023-06-10T00:09:53;13.50;;;4.50;;
34035;SDS011;63481;52.588;22.472;2023-06-10T00:10:47;10.80;;;4.80;;
34035;SDS011;63481;52.588;22.472;2023-06-10T00:11:40;14.20;;;5.20;;
34035;SDS011;63481;52.588;22.472;2023-06-10T00:12:34;12.30;;;5.00;;
34035;SDS011;63481;52.588;22.472;2023-06-10T00:13:29;16.30;;;4.80;;
34035;SDS011;63481;52.588;22.472;2023-06-10T00:14:21;12.80;;;4.80;;
34035;SDS011;63481;52.588;22.472;2023-06-10T00:15:14;9.50;;;4.20;;
34035;SDS011;63481;52.588;22.472;2023-06-10T00:16:07;15.20;;;5.00;;
34035;SDS011;63481;52.588;22.472;2023-06-10T00:17:00;9.20;;;4.30;;
34035;SDS011;63481;52.588;22.472;2023-06-10T00:17:53;12.20;;;4.40;;
34035;SDS011;63481;52.588;22.472;2023-06-10T00:18:47;10.00;;;4.60;;
34035;SDS011;63481;52.588;22.472;2023-06-10T00:19:41;11.20;;;4.70;;
34035;SDS011;63481;52.588;22.472;2023-06-10T00:20:33;9.00;;;4.40;;
34035;SDS011;63481;52.588;22.472;2023-06-10T00:21:32;11.50;;;4.80;;
34035;SDS011;63481;52.588;22.472;2023-06-10T00:22:30;9.80;;;4.50;;
34035;SDS011;63481;52.588;22.472;2023-06-10T00:23:25;11.10;;;4.70;;
34035;SDS011;63481;52.588;22.472;2023-06-10T00:24:17;13.10;;;5.00;;
34035;SDS011;63481;52.588;22.472;2023-06-10T00:25:10;13.50;;;4.70;;
34035;SDS011;63481;52.588;22.472;2023-06-10T00:26:03;15.00;;;5.00;;
34035;SDS011;63481;52.588;22.472;2023-06-10T00:26:57;10.00;;;4.10;;
34035;SDS011;63481;52.588;22.472;2023-06-10T00:27:49;16.30;;;4.60;;
34035;SDS011;63481;52.588;22.472;2023-06-10T00:28:42;14.20;;;4.50;;
34035;SDS011;63481;52.588;22.472;2023-06-10T00:29:37;10.90;;;4.80;;
34035;SDS011;63481;52.588;22.472;2023-06-10T00:30:31;15.60;;;4.70;;
34035;SDS011;63481;52.588;22.472;2023-06-10T00:31:23;11.80;;;4.30;;
34035;SDS011;63481;52.588;22.472;2023-06-10T00:32:18;12.30;;;5.20;;
34035;SDS011;63481;52.588;22.472;2023-06-10T00:33:11;13.60;;;4.70;;
34035;SDS011;63481;52.588;22.472;2023-06-10T00:34:03;10.70;;;4.40;;
34035;SDS011;63481;52.588;22.472;2023-06-10T00:34:59;11.90;;;4.70;;
34035;SDS011;63481;52.588;22.472;2023-06-10T00:35:52;19.00;;;4.70;;
34035;SDS011;63481;52.588;22.472;2023-06-10T00:36:45;10.60;;;5.00;;
34035;SDS011;63481;52.588;22.472;2023-06-10T00:37:38;11.90;;;4.70;;
34035;SDS011;63481;52.588;22.472;2023-06-10T00:38:30;11.50;;;4.40;;
34035;SDS011;63481;52.588;22.472;2023-06-10T00:39:27;15.30;;;5.40;;
34035;SDS011;63481;52.588;22.472;2023-06-10T00:40:19;14.30;;;4.90;;
34035;SDS011;63481;52.588;22.472;2023-06-10T00:41:12;12.50;;;4.40;;
34035;SDS011;63481;52.588;22.472;2023-06-10T00:42:05;14.60;;;4.80;;
34035;SDS011;63481;52.588;22.472;2023-06-10T00:42:59;12.90;;;4.50;;
34035;SDS011;63481;52.588;22.472;2023-06-10T00:43:52;14.10;;;4.30;;
34035;SDS011;63481;52.588;22.472;2023-06-10T00:44:45;14.30;;;5.10;;
34035;SDS011;63481;52.588;22.472;2023-06-10T00:45:37;14.70;;;4.90;;
34035;SDS011;63481;52.588;22.472;2023-06-10T00:46:30;10.20;;;4.50;;
34035;SDS011;63481;52.588;22.472;2023-06-10T00:47:25;12.50;;;4.00;;
34035;SDS011;63481;52.588;22.472;2023-06-10T00:48:18;10.50;;;4.40;;
34035;SDS011;63481;52.588;22.472;2023-06-10T00:49:11;11.90;;;4.70;;
34035;SDS011;63481;52.588;22.472;2023-06-10T00:50:05;10.90;;;4.80;;
34035;SDS011;63481;52.588;22.472;2023-06-10T00:50:59;12.00;;;5.20;;
34035;SDS011;63481;52.588;22.472;2023-06-10T00:51:52;12.30;;;4.70;;
34035;SDS011;63481;52.588;22.472;2023-06-10T00:52:45;15.00;;;4.80;;
34035;SDS011;63481;52.588;22.472;2023-06-10T00:53:40;11.00;;;4.20;;
34035;SDS011;63481;52.588;22.472;2023-06-10T00:54:33;13.10;;;4.50;;
34035;SDS011;63481;52.588;22.472;2023-06-10T00:55:26;15.50;;;4.90;;
34035;SDS011;63481;52.588;22.472;2023-06-10T00:56:20;13.00;;;4.50;;
34035;SDS011;63481;52.588;22.472;2023-06-10T00:57:13;13.40;;;4.20;;
34035;SDS011;63481;52.588;22.472;2023-06-10T00:58:06;13.10;;;4.70;;
34035;SDS011;63481;52.588;22.472;2023-06-10T00:58:59;10.90;;;4.10;;
34035;SDS011;63481;52.588;22.472;2023-06-10T00:59:52;11.30;;;5.00;;
34035;SDS011;63481;52.588;22.472;2023-06-10T01:00:46;14.00;;;5.00;;
34035;SDS011;63481;52.588;22.472;2023-06-10T01:01:39;11.90;;;4.10;;
34035;SDS011;63481;52.588;22.472;2023-06-10T01:02:32;10.60;;;4.70;;
34035;SDS011;63481;52.588;22.472;2023-06-10T01:03:24;11.10;;;4.50;;
34035;SDS011;63481;52.588;22.472;2023-06-10T01:04:17;11.40;;;4.50;;
34035;SDS011;63481;52.588;22.472;2023-06-10T01:05:12;10.70;;;4.60;;
34035;SDS011;63481;52.588;22.472;2023-06-10T01:07:20;9.90;;;4.10;;
34035;SDS011;63481;52.588;22.472;2023-06-10T01:08:52;12.20;;;3.80;;
34035;SDS011;63481;52.588;22.472;2023-06-10T01:10:05;10.10;;;4.30;;
34035;SDS011;63481;52.588;22.472;2023-06-10T01:11:07;16.20;;;5.10;;
34035;SDS011;63481;52.588;22.472;2023-06-10T01:13:11;19.80;;;5.10;;
34035;SDS011;63481;52.588;22.472;2023-06-10T01:14:04;9.20;;;4.20;;
34035;SDS011;63481;52.588;22.472;2023-06-10T01:14:57;11.30;;;4.40;;
34035;SDS011;63481;52.588;22.472;2023-06-10T01:15:51;15.70;;;4.70;;
34035;SDS011;63481;52.588;22.472;2023-06-10T01:16:44;13.00;;;4.80;;
34035;SDS011;63481;52.588;22.472;2023-06-10T01:19:07;10.00;;;4.50;;
34035;SDS011;63481;52.588;22.472;2023-06-10T01:19:59;8.90;;;4.70;;
34035;SDS011;63481;52.588;22.472;2023-06-10T01:20:55;8.80;;;4.20;;
34035;SDS011;63481;52.588;22.472;2023-06-10T01:21:48;16.60;;;4.70;;
34035;SDS011;63481;52.588;22.472;2023-06-10T01:22:43;9.40;;;4.20;;
34035;SDS011;63481;52.588;22.472;2023-06-10T01:23:37;14.30;;;5.00;;
34035;SDS011;63481;52.588;22.472;2023-06-10T01:24:30;12.40;;;4.30;;
34035;SDS011;63481;52.588;22.472;2023-06-10T01:25:26;12.10;;;4.50;;
34035;SDS011;63481;52.588;22.472;2023-06-10T01:26:20;13.30;;;5.10;;
34035;SDS011;63481;52.588;22.472;2023-06-10T01:27:18;10.60;;;4.90;;
34035;SDS011;63481;52.588;22.472;2023-06-10T01:29:21;11.50;;;4.60;;
34035;SDS011;63481;52.588;22.472;2023-06-10T01:30:21;11.00;;;4.70;;
34035;SDS011;63481;52.588;22.472;2023-06-10T01:31:36;11.00;;;4.20;;
34035;SDS011;63481;52.588;22.472;2023-06-10T01:32:40;14.20;;;4.90;;
34035;SDS011;63481;52.588;22.472;2023-06-10T01:33:42;13.20;;;4.00;;
34035;SDS011;63481;52.588;22.472;2023-06-10T01:34:39;13.60;;;4.30;;
34035;SDS011;63481;52.588;22.472;2023-06-10T01:35:35;10.10;;;4.20;;
34035;SDS011;63481;52.588;22.472;2023-06-10T01:36:29;14.80;;;4.40;;
34035;SDS011;63481;52.588;22.472;2023-06-10T01:37:24;10.40;;;4.40;;
34035;SDS011;63481;52.588;22.472;2023-06-10T01:38:19;11.90;;;3.90;;
34035;SDS011;63481;52.588;22.472;2023-06-10T01:39:17;10.00;;;4.30;;
34035;SDS011;63481;52.588;22.472;2023-06-10T01:40:13;10.70;;;4.10;;
34035;SDS011;63481;52.588;22.472;2023-06-10T01:41:06;12.10;;;4.60;;
34035;SDS011;63481;52.588;22.472;2023-06-10T01:41:59;15.50;;;5.00;;
34035;SDS011;63481;52.588;22.472;2023-06-10T01:42:56;10.80;;;4.50;;
34035;SDS011;63481;52.588;22.472;2023-06-10T01:43:49;15.00;;;4.60;;
34035;SDS011;63481;52.588;22.472;2023-06-10T01:44:42;10.50;;;4.00;;
34035;SDS011;63481;52.588;22.472;2023-06-10T01:45:35;13.30;;;4.80;;
34035;SDS011;63481;52.588;22.472;2023-06-10T01:46:27;12.60;;;4.60;;
34035;SDS011;63481;52.588;22.472;2023-06-10T01:47:21;10.80;;;4.10;;
34035;SDS011;63481;52.588;22.472;2023-06-10T01:48:14;16.10;;;5.10;;
34035;SDS011;63481;52.588;22.472;2023-06-10T01:49:08;10.40;;;3.90;;
34035;SDS011;63481;52.588;22.472;2023-06-10T01:50:01;14.00;;;3.90;;
34035;SDS011;63481;52.588;22.472;2023-06-10T01:50:54;12.80;;;5.00;;
34035;SDS011;63481;52.588;22.472;2023-06-10T01:51:48;10.00;;;3.90;;
34035;SDS011;63481;52.588;22.472;2023-06-10T01:52:41;9.60;;;3.90;;
34035;SDS011;63481;52.588;22.472;2023-06-10T01:53:33;10.00;;;4.00;;
34035;SDS011;63481;52.588;22.472;2023-06-10T01:54:26;12.90;;;4.20;;
34035;SDS011;63481;52.588;22.472;2023-06-10T01:55:19;11.90;;;4.20;;
34035;SDS011;63481;52.588;22.472;2023-06-10T01:56:11;11.40;;;4.20;;
34035;SDS011;63481;52.588;22.472;2023-06-10T01:57:10;10.90;;;4.10;;
34035;SDS011;63481;52.588;22.472;2023-06-10T01:58:03;10.20;;;4.00;;
34035;SDS011;63481;52.588;22.472;2023-06-10T01:58:56;10.50;;;4.10;;
34035;SDS011;63481;52.588;22.472;2023-06-10T01:59:51;15.60;;;4.10;;
34035;SDS011;63481;52.588;22.472;2023-06-10T02:00:44;13.10;;;4.10;;
34035;SDS011;63481;52.588;22.472;2023-06-10T02:01:36;9.60;;;3.90;;
34035;SDS011;63481;52.588;22.472;2023-06-10T02:02:29;11.40;;;4.50;;
34035;SDS011;63481;52.588;22.472;2023-06-10T02:03:22;9.90;;;4.30;;
34035;SDS011;63481;52.588;22.472;2023-06-10T02:04:15;11.10;;;4.00;;
34035;SDS011;63481;52.588;22.472;2023-06-10T02:05:08;9.30;;;3.90;;
34035;SDS011;63481;52.588;22.472;2023-06-10T02:06:01;11.50;;;3.90;;
34035;SDS011;63481;52.588;22.472;2023-06-10T02:06:54;16.50;;;4.20;;
34035;SDS011;63481;52.588;22.472;2023-06-10T02:07:48;15.00;;;4.70;;
34035;SDS011;63481;52.588;22.472;2023-06-10T02:08:40;14.60;;;4.90;;
34035;SDS011;63481;52.588;22.472;2023-06-10T02:09:33;9.20;;;4.20;;
34035;SDS011;63481;52.588;22.472;2023-06-10T02:10:27;12.50;;;4.70;;
34035;SDS011;63481;52.588;22.472;2023-06-10T02:11:20;12.80;;;3.70;;
34035;SDS011;63481;52.588;22.472;2023-06-10T02:12:13;11.90;;;3.70;;
34035;SDS011;63481;52.588;22.472;2023-06-10T02:13:05;8.50;;;3.40;;
34035;SDS011;63481;52.588;22.472;2023-06-10T02:13:58;14.60;;;4.30;;
34035;SDS011;63481;52.588;22.472;2023-06-10T02:14:51;9.30;;;3.60;;
34035;SDS011;63481;52.588;22.472;2023-06-10T02:15:44;12.40;;;4.20;;
34035;SDS011;63481;52.588;22.472;2023-06-10T02:16:37;9.60;;;3.50;;
34035;SDS011;63481;52.588;22.472;2023-06-10T02:17:31;10.00;;;3.80;;
34035;SDS011;63481;52.588;22.472;2023-06-10T02:18:24;12.80;;;3.90;;
34035;SDS011;63481;52.588;22.472;2023-06-10T02:19:19;13.40;;;4.20;;
34035;SDS011;63481;52.588;22.472;2023-06-10T02:20:13;12.00;;;4.30;;
34035;SDS011;63481;52.588;22.472;2023-06-10T02:21:06;8.90;;;4.00;;
34035;SDS011;63481;52.588;22.472;2023-06-10T02:21:59;9.80;;;3.80;;
34035;SDS011;63481;52.588;22.472;2023-06-10T02:22:52;9.80;;;4.30;;
34035;SDS011;63481;52.588;22.472;2023-06-10T02:23:45;9.60;;;4.00;;
34035;SDS011;63481;52.588;22.472;2023-06-10T02:24:37;10.90;;;3.80;;
34035;SDS011;63481;52.588;22.472;2023-06-10T02:25:31;12.60;;;4.10;;
34035;SDS011;63481;52.588;22.472;2023-06-10T02:26:23;7.10;;;2.90;;
34035;SDS011;63481;52.588;22.472;2023-06-10T02:27:18;8.80;;;3.70;;
34035;SDS011;63481;52.588;22.472;2023-06-10T02:28:11;12.60;;;4.70;;
34035;SDS011;63481;52.588;22.472;2023-06-10T02:29:03;10.40;;;4.00;;
34035;SDS011;63481;52.588;22.472;2023-06-10T02:29:56;12.90;;;4.30;;
34035;SDS011;63481;52.588;22.472;2023-06-10T02:30:50;16.00;;;5.10;;
34035;SDS011;63481;52.588;22.472;2023-06-10T02:31:44;11.60;;;3.50;;
34035;SDS011;63481;52.588;22.472;2023-06-10T02:32:36;9.40;;;4.00;;
34035;SDS011;63481;52.588;22.472;2023-06-10T02:33:29;9.80;;;4.10;;
34035;SDS011;63481;52.588;22.472;2023-06-10T02:34:22;11.90;;;4.00;;
34035;SDS011;63481;52.588;22.472;2023-06-10T02:35:15;10.20;;;3.30;;
34035;SDS011;63481;52.588;22.472;2023-06-10T02:36:08;8.40;;;3.70;;
34035;SDS011;63481;52.588;22.472;2023-06-10T02:37:00;10.00;;;4.10;;
34035;SDS011;63481;52.588;22.472;2023-06-10T02:37:53;9.40;;;3.50;;
34035;SDS011;63481;52.588;22.472;2023-06-10T02:38:46;9.40;;;3.70;;
34035;SDS011;63481;52.588;22.472;2023-06-10T02:39:39;9.50;;;3.80;;
34035;SDS011;63481;52.588;22.472;2023-06-10T02:40:34;9.50;;;3.60;;
34035;SDS011;63481;52.588;22.472;2023-06-10T02:41:27;12.30;;;3.80;;
34035;SDS011;63481;52.588;22.472;2023-06-10T02:42:19;14.80;;;4.10;;
34035;SDS011;63481;52.588;22.472;2023-06-10T02:43:13;10.40;;;4.30;;
34035;SDS011;63481;52.588;22.472;2023-06-10T02:44:06;11.20;;;4.10;;
34035;SDS011;63481;52.588;22.472;2023-06-10T02:44:59;11.30;;;3.50;;
34035;SDS011;63481;52.588;22.472;2023-06-10T02:46:03;10.20;;;4.30;;
34035;SDS011;63481;52.588;22.472;2023-06-10T02:46:56;7.80;;;3.70;;
34035;SDS011;63481;52.588;22.472;2023-06-10T02:47:48;10.20;;;4.20;;
34035;SDS011;63481;52.588;22.472;2023-06-10T02:48:42;11.20;;;4.90;;
34035;SDS011;63481;52.588;22.472;2023-06-10T02:49:41;10.80;;;4.40;;
34035;SDS011;63481;52.588;22.472;2023-06-10T02:50:35;13.10;;;3.80;;
34035;SDS011;63481;52.588;22.472;2023-06-10T02:51:36;9.60;;;3.70;;
34035;SDS011;63481;52.588;22.472;2023-06-10T02:52:29;10.10;;;3.80;;
34035;SDS011;63481;52.588;22.472;2023-06-10T02:53:23;11.30;;;4.00;;
34035;SDS011;63481;52.588;22.472;2023-06-10T02:54:20;12.80;;;3.90;;
34035;SDS011;63481;52.588;22.472;2023-06-10T02:55:13;17.40;;;3.70;;
34035;SDS011;63481;52.588;22.472;2023-06-10T02:56:08;8.80;;;4.00;;
34035;SDS011;63481;52.588;22.472;2023-06-10T02:57:01;10.10;;;4.00;;
34035;SDS011;63481;52.588;22.472;2023-06-10T02:57:54;8.80;;;3.80;;
34035;SDS011;63481;52.588;22.472;2023-06-10T02:58:47;9.90;;;3.70;;
34035;SDS011;63481;52.588;22.472;2023-06-10T02:59:41;10.30;;;4.10;;
34035;SDS011;63481;52.588;22.472;2023-06-10T03:00:34;9.70;;;3.80;;
34035;SDS011;63481;52.588;22.472;2023-06-10T03:01:28;11.40;;;4.10;;
34035;SDS011;63481;52.588;22.472;2023-06-10T03:03:22;12.80;;;4.20;;
34035;SDS011;63481;52.588;22.472;2023-06-10T03:04:22;7.60;;;3.50;;
34035;SDS011;63481;52.588;22.472;2023-06-10T03:05:21;11.40;;;4.00;;
34035;SDS011;63481;52.588;22.472;2023-06-10T03:06:16;11.70;;;4.30;;
34035;SDS011;63481;52.588;22.472;2023-06-10T03:07:09;8.50;;;3.40;;
34035;SDS011;63481;52.588;22.472;2023-06-10T03:08:03;9.80;;;4.00;;
34035;SDS011;63481;52.588;22.472;2023-06-10T03:08:57;12.70;;;4.00;;
34035;SDS011;63481;52.588;22.472;2023-06-10T03:09:50;6.90;;;3.30;;
34035;SDS011;63481;52.588;22.472;2023-06-10T03:10:43;11.60;;;3.90;;
34035;SDS011;63481;52.588;22.472;2023-06-10T03:11:36;10.90;;;3.50;;
34035;SDS011;63481;52.588;22.472;2023-06-10T03:12:29;9.50;;;3.70;;
34035;SDS011;63481;52.588;22.472;2023-06-10T03:13:23;9.70;;;3.80;;
34035;SDS011;63481;52.588;22.472;2023-06-10T03:14:16;9.60;;;3.40;;
34035;SDS011;63481;52.588;22.472;2023-06-10T03:15:09;14.60;;;4.40;;
34035;SDS011;63481;52.588;22.472;2023-06-10T03:16:02;9.30;;;4.00;;
34035;SDS011;63481;52.588;22.472;2023-06-10T03:16:55;10.00;;;3.50;;
34035;SDS011;63481;52.588;22.472;2023-06-10T03:17:49;8.00;;;3.40;;
34035;SDS011;63481;52.588;22.472;2023-06-10T03:18:42;15.10;;;3.40;;
34035;SDS011;63481;52.588;22.472;2023-06-10T03:19:35;11.50;;;3.70;;
34035;SDS011;63481;52.588;22.472;2023-06-10T03:20:30;8.90;;;3.60;;
34035;SDS011;63481;52.588;22.472;2023-06-10T03:21:23;10.20;;;3.90;;
34035;SDS011;63481;52.588;22.472;2023-06-10T03:22:16;13.30;;;3.80;;
34035;SDS011;63481;52.588;22.472;2023-06-10T03:23:21;8.40;;;3.80;;
34035;SDS011;63481;52.588;22.472;2023-06-10T03:24:14;9.70;;;4.10;;
34035;SDS011;63481;52.588;22.472;2023-06-10T03:25:07;14.10;;;3.80;;
34035;SDS011;63481;52.588;22.472;2023-06-10T03:26:06;10.20;;;3.50;;
34035;SDS011;63481;52.588;22.472;2023-06-10T03:27:00;6.90;;;3.20;;
34035;SDS011;63481;52.588;22.472;2023-06-10T03:27:54;8.10;;;3.60;;
34035;SDS011;63481;52.588;22.472;2023-06-10T03:28:47;11.30;;;4.00;;
34035;SDS011;63481;52.588;22.472;2023-06-10T03:29:40;10.30;;;3.60;;
34035;SDS011;63481;52.588;22.472;2023-06-10T03:30:33;11.40;;;4.20;;
34035;SDS011;63481;52.588;22.472;2023-06-10T03:31:26;11.80;;;4.10;;
34035;SDS011;63481;52.588;22.472;2023-06-10T03:32:19;12.90;;;4.20;;
34035;SDS011;63481;52.588;22.472;2023-06-10T03:33:12;10.30;;;3.40;;
34035;SDS011;63481;52.588;22.472;2023-06-10T03:34:06;11.30;;;3.90;;
34035;SDS011;63481;52.588;22.472;2023-06-10T03:34:59;8.90;;;3.70;;
34035;SDS011;63481;52.588;22.472;2023-06-10T03:35:53;9.30;;;3.60;;
34035;SDS011;63481;52.588;22.472;2023-06-10T03:36:46;11.40;;;3.40;;
34035;SDS011;63481;52.588;22.472;2023-06-10T03:37:39;9.70;;;3.90;;
34035;SDS011;63481;52.588;22.472;2023-06-10T03:38:32;12.80;;;3.50;;
34035;SDS011;63481;52.588;22.472;2023-06-10T03:39:25;10.90;;;4.30;;
34035;SDS011;63481;52.588;22.472;2023-06-10T03:40:21;9.80;;;3.40;;
34035;SDS011;63481;52.588;22.472;2023-06-10T03:41:14;8.20;;;3.40;;
34035;SDS011;63481;52.588;22.472;2023-06-10T03:42:07;10.80;;;3.60;;
34035;SDS011;63481;52.588;22.472;2023-06-10T03:43:00;10.40;;;4.00;;
34035;SDS011;63481;52.588;22.472;2023-06-10T03:43:53;11.30;;;4.10;;
34035;SDS011;63481;52.588;22.472;2023-06-10T03:44:46;10.30;;;3.50;;
34035;SDS011;63481;52.588;22.472;2023-06-10T03:45:39;12.20;;;3.70;;
34035;SDS011;63481;52.588;22.472;2023-06-10T03:46:33;10.80;;;3.20;;
34035;SDS011;63481;52.588;22.472;2023-06-10T03:47:26;10.00;;;3.60;;
34035;SDS011;63481;52.588;22.472;2023-06-10T03:48:19;9.90;;;3.70;;
34035;SDS011;63481;52.588;22.472;2023-06-10T03:49:15;9.80;;;3.70;;
34035;SDS011;63481;52.588;22.472;2023-06-10T03:50:09;9.60;;;3.70;;
34035;SDS011;63481;52.588;22.472;2023-06-10T03:51:02;10.00;;;3.70;;
34035;SDS011;63481;52.588;22.472;2023-06-10T03:51:55;14.40;;;3.80;;
34035;SDS011;63481;52.588;22.472;2023-06-10T03:52:48;12.00;;;3.30;;
34035;SDS011;63481;52.588;22.472;2023-06-10T03:53:41;10.50;;;3.20;;
34035;SDS011;63481;52.588;22.472;2023-06-10T03:54:34;12.00;;;5.00;;
34035;SDS011;63481;52.588;22.472;2023-06-10T03:55:27;9.70;;;3.60;;
34035;SDS011;63481;52.588;22.472;2023-06-10T03:56:20;8.90;;;3.60;;
34035;SDS011;63481;52.588;22.472;2023-06-10T03:57:13;9.50;;;3.80;;
34035;SDS011;63481;52.588;22.472;2023-06-10T03:58:06;14.50;;;3.90;;
34035;SDS011;63481;52.588;22.472;2023-06-10T03:58:58;10.60;;;3.70;;
34035;SDS011;63481;52.588;22.472;2023-06-10T03:59:51;10.50;;;3.70;;
34035;SDS011;63481;52.588;22.472;2023-06-10T04:00:45;7.80;;;3.70;;
34035;SDS011;63481;52.588;22.472;2023-06-10T04:01:39;12.20;;;3.70;;
34035;SDS011;63481;52.588;22.472;2023-06-10T04:02:33;15.20;;;3.90;;
34035;SDS011;63481;52.588;22.472;2023-06-10T04:03:27;13.10;;;3.80;;
34035;SDS011;63481;52.588;22.472;2023-06-10T04:04:19;10.40;;;3.60;;
34035;SDS011;63481;52.588;22.472;2023-06-10T04:05:13;11.70;;;3.90;;
34035;SDS011;63481;52.588;22.472;2023-06-10T04:06:07;7.60;;;3.70;;
34035;SDS011;63481;52.588;22.472;2023-06-10T04:07:00;8.70;;;3.50;;
34035;SDS011;63481;52.588;22.472;2023-06-10T04:07:53;10.10;;;3.40;;
34035;SDS011;63481;52.588;22.472;2023-06-10T04:08:45;9.80;;;3.80;;
34035;SDS011;63481;52.588;22.472;2023-06-10T04:09:38;9.00;;;3.70;;
34035;SDS011;63481;52.588;22.472;2023-06-10T04:10:31;10.70;;;3.80;;
34035;SDS011;63481;52.588;22.472;2023-06-10T04:11:26;12.20;;;3.60;;
34035;SDS011;63481;52.588;22.472;2023-06-10T04:12:19;8.90;;;3.70;;
34035;SDS011;63481;52.588;22.472;2023-06-10T04:13:12;9.20;;;3.80;;
34035;SDS011;63481;52.588;22.472;2023-06-10T04:14:10;8.70;;;3.40;;
34035;SDS011;63481;52.588;22.472;2023-06-10T04:15:04;6.90;;;3.10;;
34035;SDS011;63481;52.588;22.472;2023-06-10T04:15:57;10.00;;;3.50;;
34035;SDS011;63481;52.588;22.472;2023-06-10T04:16:51;10.00;;;3.80;;
34035;SDS011;63481;52.588;22.472;2023-06-10T04:17:44;9.10;;;3.40;;
34035;SDS011;63481;52.588;22.472;2023-06-10T04:18:37;7.70;;;3.30;;
34035;SDS011;63481;52.588;22.472;2023-06-10T04:19:32;7.10;;;3.40;;
34035;SDS011;63481;52.588;22.472;2023-06-10T04:20:25;8.30;;;3.40;;
34035;SDS011;63481;52.588;22.472;2023-06-10T04:21:18;8.50;;;3.40;;
34035;SDS011;63481;52.588;22.472;2023-06-10T04:22:11;7.80;;;3.40;;
34035;SDS011;63481;52.588;22.472;2023-06-10T04:23:04;36.30;;;4.90;;
34035;SDS011;63481;52.588;22.472;2023-06-10T04:23:57;13.90;;;3.90;;
34035;SDS011;63481;52.588;22.472;2023-06-10T04:24:50;9.10;;;3.50;;
34035;SDS011;63481;52.588;22.472;2023-06-10T04:25:44;6.50;;;3.30;;
34035;SDS011;63481;52.588;22.472;2023-06-10T04:26:37;10.30;;;3.70;;
34035;SDS011;63481;52.588;22.472;2023-06-10T04:27:30;9.00;;;3.50;;
34035;SDS011;63481;52.588;22.472;2023-06-10T04:28:23;8.50;;;3.50;;
34035;SDS011;63481;52.588;22.472;2023-06-10T04:29:16;9.00;;;3.20;;
34035;SDS011;63481;52.588;22.472;2023-06-10T04:30:10;12.40;;;3.60;;
34035;SDS011;63481;52.588;22.472;2023-06-10T04:31:03;7.90;;;3.20;;
34035;SDS011;63481;52.588;22.472;2023-06-10T04:31:57;10.80;;;4.10;;
34035;SDS011;63481;52.588;22.472;2023-06-10T04:32:50;9.70;;;3.30;;
34035;SDS011;63481;52.588;22.472;2023-06-10T04:33:44;10.70;;;3.90;;
34035;SDS011;63481;52.588;22.472;2023-06-10T04:34:37;9.50;;;3.50;;
34035;SDS011;63481;52.588;22.472;2023-06-10T04:35:31;11.20;;;3.80;;
34035;SDS011;63481;52.588;22.472;2023-06-10T04:36:25;11.70;;;3.60;;
34035;SDS011;63481;52.588;22.472;2023-06-10T04:37:18;8.30;;;3.40;;
34035;SDS011;63481;52.588;22.472;2023-06-10T04:38:11;10.50;;;3.40;;
34035;SDS011;63481;52.588;22.472;2023-06-10T04:39:04;12.70;;;3.50;;
34035;SDS011;63481;52.588;22.472;2023-06-10T04:39:58;8.30;;;3.10;;
34035;SDS011;63481;52.588;22.472;2023-06-10T04:40:52;11.70;;;3.20;;
34035;SDS011;63481;52.588;22.472;2023-06-10T04:41:46;7.10;;;3.50;;
34035;SDS011;63481;52.588;22.472;2023-06-10T04:42:39;8.30;;;3.00;;
34035;SDS011;63481;52.588;22.472;2023-06-10T04:43:32;10.80;;;3.70;;
34035;SDS011;63481;52.588;22.472;2023-06-10T04:44:25;7.80;;;3.50;;
34035;SDS011;63481;52.588;22.472;2023-06-10T04:45:19;8.40;;;3.20;;
34035;SDS011;63481;52.588;22.472;2023-06-10T04:46:11;7.40;;;3.80;;
34035;SDS011;63481;52.588;22.472;2023-06-10T04:47:05;7.20;;;3.50;;
34035;SDS011;63481;52.588;22.472;2023-06-10T04:48:00;10.40;;;3.10;;
34035;SDS011;63481;52.588;22.472;2023-06-10T04:48:53;9.10;;;3.40;;
34035;SDS011;63481;52.588;22.472;2023-06-10T04:49:48;7.20;;;3.70;;
34035;SDS011;63481;52.588;22.472;2023-06-10T04:50:41;7.80;;;3.20;;
34035;SDS011;63481;52.588;22.472;2023-06-10T04:51:34;7.70;;;3.70;;
34035;SDS011;63481;52.588;22.472;2023-06-10T04:52:27;8.70;;;3.90;;
34035;SDS011;63481;52.588;22.472;2023-06-10T04:53:20;8.40;;;3.40;;
34035;SDS011;63481;52.588;22.472;2023-06-10T04:54:13;8.70;;;3.50;;
34035;SDS011;63481;52.588;22.472;2023-06-10T04:55:06;12.10;;;3.80;;
34035;SDS011;63481;52.588;22.472;2023-06-10T04:55:59;13.20;;;3.60;;
34035;SDS011;63481;52.588;22.472;2023-06-10T04:56:52;8.50;;;3.30;;
34035;SDS011;63481;52.588;22.472;2023-06-10T04:57:45;10.20;;;3.70;;
34035;SDS011;63481;52.588;22.472;2023-06-10T04:58:37;11.30;;;3.90;;
34035;SDS011;63481;52.588;22.472;2023-06-10T04:59:30;7.10;;;3.30;;
34035;SDS011;63481;52.588;22.472;2023-06-10T05:00:23;9.40;;;3.30;;
34035;SDS011;63481;52.588;22.472;2023-06-10T05:01:15;8.80;;;3.20;;
34035;SDS011;63481;52.588;22.472;2023-06-10T05:02:08;10.20;;;3.60;;
34035;SDS011;63481;52.588;22.472;2023-06-10T05:03:01;10.90;;;3.80;;
34035;SDS011;63481;52.588;22.472;2023-06-10T05:03:53;7.00;;;3.50;;
34035;SDS011;63481;52.588;22.472;2023-06-10T05:04:46;6.10;;;3.20;;
34035;SDS011;63481;52.588;22.472;2023-06-10T05:05:39;6.80;;;3.30;;
34035;SDS011;63481;52.588;22.472;2023-06-10T05:06:32;9.80;;;3.30;;
34035;SDS011;63481;52.588;22.472;2023-06-10T05:07:25;6.90;;;3.40;;
34035;SDS011;63481;52.588;22.472;2023-06-10T05:08:18;11.90;;;3.90;;
34035;SDS011;63481;52.588;22.472;2023-06-10T05:09:11;7.20;;;3.30;;
34035;SDS011;63481;52.588;22.472;2023-06-10T05:10:03;10.20;;;4.00;;
34035;SDS011;63481;52.588;22.472;2023-06-10T05:10:56;11.80;;;3.70;;
34035;SDS011;63481;52.588;22.472;2023-06-10T05:11:50;8.00;;;3.30;;
34035;SDS011;63481;52.588;22.472;2023-06-10T05:12:43;7.30;;;3.40;;
34035;SDS011;63481;52.588;22.472;2023-06-10T05:13:36;8.60;;;3.40;;
34035;SDS011;63481;52.588;22.472;2023-06-10T05:14:28;10.10;;;3.50;;
34035;SDS011;63481;52.588;22.472;2023-06-10T05:15:21;5.60;;;3.00;;
34035;SDS011;63481;52.588;22.472;2023-06-10T05:16:15;9.00;;;3.40;;
34035;SDS011;63481;52.588;22.472;2023-06-10T05:17:08;10.60;;;3.50;;
34035;SDS011;63481;52.588;22.472;2023-06-10T05:18:00;11.60;;;3.70;;
34035;SDS011;63481;52.588;22.472;2023-06-10T05:18:54;8.30;;;3.20;;
34035;SDS011;63481;52.588;22.472;2023-06-10T05:19:47;11.20;;;3.40;;
34035;SDS011;63481;52.588;22.472;2023-06-10T05:20:40;7.10;;;2.90;;
34035;SDS011;63481;52.588;22.472;2023-06-10T05:21:33;8.90;;;3.60;;
34035;SDS011;63481;52.588;22.472;2023-06-10T05:22:26;10.20;;;3.30;;
34035;SDS011;63481;52.588;22.472;2023-06-10T05:23:20;8.50;;;3.60;;